Time;durP1;ratioP1;P1;durP2;ratioP2;P2;SDS_P1;SDS_P2;PMS_P1;PMS_P2;Temp;Humidity;BMP_temperature;BMP_pressure;BME280_temperature;BME280_humidity;BME280_pressure;Samples;Min_cycle;Max_cycle;Signal;HPM_P1;HPM_P2
2022/06/16 00:02:22;;;;;;;1.55;0.98;;;;;;;19.90;46.49;99891.88;4444305;32;33931;-82
2022/06/16 00:04:51;;;;;;;0.93;0.93;;;;;;;19.88;46.48;99891.09;4444550;32;33719;-81
2022/06/16 00:07:20;;;;;;;1.35;1.00;;;;;;;19.82;46.26;99894.03;4450114;32;33103;-81
2022/06/16 00:09:52;;;;;;;1.90;1.10;;;;;;;19.83;46.71;99888.69;4444607;32;34557;-81
2022/06/16 00:12:21;;;;;;;1.30;1.10;;;;;;;19.88;46.75;99895.53;4444282;32;33422;-81
2022/06/16 00:14:49;;;;;;;3.03;1.00;;;;;;;19.89;46.60;99890.19;4443195;32;33609;-81
2022/06/16 00:17:18;;;;;;;2.10;1.30;;;;;;;19.76;47.37;99889.06;4443510;32;33916;-81
2022/06/16 00:19:48;;;;;;;1.25;0.98;;;;;;;19.87;47.46;99892.03;4429186;32;32074;-81
2022/06/16 00:22:16;;;;;;;1.60;1.10;;;;;;;19.87;47.48;99893.81;4444218;32;34301;-81
2022/06/16 00:24:45;;;;;;;1.10;0.90;;;;;;;19.86;47.88;99890.34;4440515;32;33818;-83
2022/06/16 00:27:15;;;;;;;1.80;0.90;;;;;;;19.84;47.89;99889.56;4444082;32;33324;-81
2022/06/16 00:29:45;;;;;;;0.98;0.70;;;;;;;19.76;48.00;99881.16;4443710;32;33801;-83
2022/06/16 00:32:14;;;;;;;1.10;0.95;;;;;;;19.70;48.21;99881.47;4442327;32;34467;-82
2022/06/16 00:34:44;;;;;;;2.20;1.17;;;;;;;19.66;48.12;99879.87;4449636;32;33724;-82
2022/06/16 00:37:12;;;;;;;1.37;1.20;;;;;;;19.79;47.77;99879.25;4439414;32;33448;-82
2022/06/16 00:39:41;;;;;;;1.05;0.95;;;;;;;19.74;47.55;99880.38;4441033;32;33102;-81
2022/06/16 00:42:14;;;;;;;2.15;1.15;;;;;;;19.83;47.36;99880.78;4443274;32;34554;-81
2022/06/16 00:44:46;;;;;;;4.22;1.27;;;;;;;19.94;47.22;99880.28;4430024;32;32859;-81
2022/06/16 00:47:16;;;;;;;1.62;1.30;;;;;;;19.96;47.03;99878.44;4448849;32;33402;-81
2022/06/16 00:49:45;;;;;;;1.10;1.00;;;;;;;19.92;47.61;99879.50;4446692;32;34924;-81
2022/06/16 00:52:15;;;;;;;1.37;1.00;;;;;;;19.86;47.74;99866.66;4439260;32;34241;-81
2022/06/16 00:54:51;;;;;;;1.55;1.00;;;;;;;19.74;48.25;99873.34;4437526;32;33383;-81
2022/06/16 00:57:23;;;;;;;1.98;1.10;;;;;;;19.80;48.08;99867.78;4439852;32;33008;-81
2022/06/16 00:59:56;;;;;;;1.60;1.37;;;;;;;19.72;48.24;99863.84;4433835;32;33588;-81
2022/06/16 01:02:28;;;;;;;1.87;1.10;;;;;;;19.73;48.56;99865.53;4445897;32;33715;-81
2022/06/16 01:04:58;;;;;;;0.93;0.90;;;;;;;19.56;48.92;99853.12;4438182;32;34282;-82
2022/06/16 01:07:30;;;;;;;1.37;1.20;;;;;;;19.50;49.01;99858.69;4434279;32;32921;-81
2022/06/16 01:10:00;;;;;;;1.48;1.20;;;;;;;19.56;48.89;99848.72;4438429;32;33513;-81
2022/06/16 01:15:56;;;;;;;1.67;1.10;;;;;;;19.31;49.60;99853.47;4436891;32;33983;-83
2022/06/16 01:18:30;;;;;;;1.85;1.30;;;;;;;19.12;50.27;99846.41;4433235;32;33925;-82
2022/06/16 01:21:06;;;;;;;;;;;;;;;19.28;49.93;99837.78;4432076;32;33795;-81
2022/06/16 01:24:06;;;;;;;1.60;1.33;;;;;;;19.09;50.62;99840.44;4437541;32;34076;-81
2022/06/16 01:27:06;;;;;;;6.55;2.10;;;;;;;19.15;50.41;99838.38;4450295;32;33293;-81
2022/06/16 01:29:41;;;;;;;2.85;1.17;;;;;;;19.15;50.53;99842.78;4357621;32;33547;-81
2022/06/16 01:32:26;;;;;;;1.50;1.40;;;;;;;19.26;50.60;99834.41;4362008;32;33658;-81
2022/06/16 01:35:02;;;;;;;2.33;1.33;;;;;;;19.19;50.69;99834.69;4362732;32;33839;-81
2022/06/16 01:37:36;;;;;;;2.83;1.25;;;;;;;19.35;50.51;99834.81;4364889;32;34150;-81
2022/06/16 01:40:10;;;;;;;1.00;0.90;;;;;;;19.31;50.70;99835.03;4371452;32;33094;-81
2022/06/16 01:42:42;;;;;;;2.08;1.20;;;;;;;19.33;51.06;99826.16;4366971;32;33722;-81
2022/06/16 01:45:16;;;;;;;2.08;1.42;;;;;;;19.22;51.43;99828.41;4361565;32;32768;-81
2022/06/16 01:47:50;;;;;;;1.60;1.20;;;;;;;19.19;51.23;99832.06;4372425;32;34127;-81
2022/06/16 01:50:23;;;;;;;1.77;1.58;;;;;;;19.09;51.40;99836.03;4357746;32;33852;-81
2022/06/16 01:52:55;;;;;;;1.45;1.10;;;;;;;19.10;51.17;99827.22;4368348;32;34443;-81
2022/06/16 01:55:27;;;;;;;1.37;1.20;;;;;;;19.08;51.42;99830.84;4366837;32;33966;-81
2022/06/16 01:57:59;;;;;;;2.35;1.45;;;;;;;19.16;51.21;99823.44;4369378;32;33661;-81
2022/06/16 02:00:32;;;;;;;1.62;1.10;;;;;;;19.11;51.57;99823.69;4370383;32;34008;-82
2022/06/16 02:03:04;;;;;;;1.98;1.23;;;;;;;19.01;51.81;99821.53;4356693;32;33640;-81
2022/06/16 02:05:40;;;;;;;2.45;1.33;;;;;;;19.02;51.63;99825.87;4398065;32;33610;-81
2022/06/16 02:08:13;;;;;;;2.05;1.25;;;;;;;19.05;51.77;99829.19;4434389;32;33964;-81
2022/06/16 02:10:45;;;;;;;2.05;1.30;;;;;;;19.03;51.93;99836.31;4435911;32;33342;-81
2022/06/16 02:13:20;;;;;;;2.60;1.50;;;;;;;18.91;52.28;99828.97;4434122;32;32187;-80
2022/06/16 02:15:54;;;;;;;1.73;1.52;;;;;;;19.10;51.76;99829.84;4446655;32;33961;-81
2022/06/16 02:18:26;;;;;;;1.58;1.40;;;;;;;18.99;51.90;99824.22;4445774;32;34214;-81
2022/06/16 02:21:00;;;;;;;1.33;1.10;;;;;;;19.05;52.00;99825.72;4435473;32;35169;-81
2022/06/16 02:23:30;;;;;;;1.45;1.30;;;;;;;19.11;51.89;99835.94;4444144;32;33942;-81
2022/06/16 02:26:00;;;;;;;2.42;1.40;;;;;;;19.06;52.14;99822.16;4441860;32;34014;-81
2022/06/16 02:28:29;;;;;;;1.52;1.25;;;;;;;18.99;52.38;99821.56;4436291;32;33920;-81
2022/06/16 02:31:16;;;;;;;2.80;1.40;;;;;;;19.02;52.50;99824.09;4440945;32;34012;-82
2022/06/16 02:33:56;;;;;;;1.83;1.37;;;;;;;18.95;52.58;99820.88;4442273;32;34353;-81
2022/06/16 02:36:34;;;;;;;1.55;1.45;;;;;;;19.04;52.37;99819.63;4434074;32;33785;-81
2022/06/16 02:39:15;;;;;;;4.87;1.58;;;;;;;18.92;52.81;99826.28;4446479;32;34167;-81
2022/06/16 02:41:51;;;;;;;2.62;1.50;;;;;;;19.04;52.53;99824.88;4430089;32;33457;-82
2022/06/16 02:44:25;;;;;;;2.05;1.50;;;;;;;18.91;52.78;99826.34;4436074;32;33881;-82
2022/06/16 02:47:03;;;;;;;1.65;1.27;;;;;;;19.03;52.48;99827.56;4434395;32;34835;-81
2022/06/16 02:49:37;;;;;;;2.10;1.30;;;;;;;19.05;52.39;99826.56;4438891;32;33850;-81
2022/06/16 02:52:15;;;;;;;1.62;1.33;;;;;;;18.86;52.79;99828.34;4432124;32;34073;-81
2022/06/16 02:54:52;;;;;;;2.42;1.37;;;;;;;19.05;52.42;99826.56;4432987;32;34401;-82
2022/06/16 02:57:26;;;;;;;1.50;1.30;;;;;;;18.92;52.78;99833.31;4432952;32;34687;-81
2022/06/16 03:00:00;;;;;;;1.90;1.30;;;;;;;18.91;52.81;99823.72;4437371;32;34546;-81
2022/06/16 03:02:30;;;;;;;2.42;1.60;;;;;;;18.88;53.02;99831.75;4448033;32;33458;-81
2022/06/16 03:05:01;;;;;;;2.08;1.62;;;;;;;18.94;52.76;99832.34;4439606;32;33843;-81
2022/06/16 03:07:33;;;;;;;;;;;;;;;19.03;52.64;99831.03;4432101;32;33572;-82
2022/06/16 03:10:03;;;;;;;2.80;1.65;;;;;;;18.98;52.80;99833.87;4438719;32;33872;-82
2022/06/16 03:12:34;;;;;;;2.08;1.40;;;;;;;19.03;52.85;99831.03;4436888;32;34020;-82
2022/06/16 03:15:04;;;;;;;1.23;1.10;;;;;;;18.88;53.36;99827.34;4434433;32;34525;-81
2022/06/16 03:17:34;;;;;;;2.72;1.50;;;;;;;19.09;53.03;99828.16;4443563;32;34024;-81
2022/06/16 03:20:03;;;;;;;3.03;1.55;;;;;;;19.13;53.15;99831.47;4447985;32;32873;-81
2022/06/16 03:22:32;;;;;;;2.45;1.50;;;;;;;19.17;52.95;99827.78;4438254;32;33072;-81
2022/06/16 03:25:01;;;;;;;2.40;1.40;;;;;;;19.27;52.57;99830.84;4438555;32;34151;-81
2022/06/16 03:27:30;;;;;;;2.70;1.48;;;;;;;19.04;53.21;99831.88;4437985;32;33596;-81
2022/06/16 03:29:59;;;;;;;1.80;1.35;;;;;;;19.17;53.01;99825.16;4442991;32;33866;-81
2022/06/16 03:32:28;;;;;;;3.67;2.22;;;;;;;19.22;52.79;99832.84;4439034;32;33340;-81
2022/06/16 03:34:58;;;;;;;2.10;1.40;;;;;;;19.08;53.40;99836.09;4434400;32;33781;-82
2022/06/16 03:37:29;;;;;;;3.35;1.40;;;;;;;19.22;52.99;99833.69;4431109;32;34427;-81
2022/06/16 03:39:59;;;;;;;2.80;1.30;;;;;;;19.28;53.40;99837.78;4438802;32;33815;-81
2022/06/16 03:42:28;;;;;;;1.92;1.35;;;;;;;19.46;53.02;99831.69;4444217;32;33257;-81
2022/06/16 03:44:58;;;;;;;2.90;1.50;;;;;;;19.49;52.90;99826.25;4444377;32;34244;-83
2022/06/16 03:47:28;;;;;;;2.50;1.52;;;;;;;19.46;53.12;99833.47;4437335;32;33884;-81
2022/06/16 03:49:58;;;;;;;2.25;1.50;;;;;;;19.35;54.27;99839.22;4448202;32;33638;-81
2022/06/16 03:52:28;;;;;;;2.53;1.73;;;;;;;19.48;53.92;99842.97;4447308;32;33394;-81
2022/06/16 03:54:57;;;;;;;4.62;1.55;;;;;;;19.50;54.07;99840.25;4448783;32;33290;-81
2022/06/16 03:57:27;;;;;;;3.87;1.98;;;;;;;19.73;53.32;99839.19;4437769;32;33756;-83
2022/06/16 03:59:57;;;;;;;1.58;1.30;;;;;;;19.25;54.88;99845.84;4442866;32;34385;-81
2022/06/16 04:02:26;;;;;;;2.65;1.37;;;;;;;19.26;55.87;99844.94;4447077;32;33190;-81
2022/06/16 04:04:57;;;;;;;2.37;1.70;;;;;;;19.46;55.94;99847.47;4442118;32;34532;-81
2022/06/16 04:07:28;;;;;;;3.33;1.70;;;;;;;19.79;55.16;99847.66;4446217;32;33979;-81
2022/06/16 04:09:58;;;;;;;2.92;1.67;;;;;;;19.74;54.49;99847.03;4431549;32;33936;-81
2022/06/16 04:12:26;;;;;;;1.80;1.40;;;;;;;19.86;53.63;99856.13;4437767;32;33500;-81
2022/06/16 04:14:58;;;;;;;1.95;1.60;;;;;;;20.05;53.16;99856.03;4442732;32;34111;-82
2022/06/16 04:17:27;;;;;;;2.12;1.58;;;;;;;19.87;53.33;99857.81;4431526;32;32025;-81
2022/06/16 04:20:14;;;;;;;3.65;1.83;;;;;;;20.02;53.34;99854.41;4438015;32;33293;-81
2022/06/16 04:22:45;;;;;;;3.75;1.77;;;;;;;20.10;53.29;99855.81;4433210;32;33398;-81
2022/06/16 04:25:22;;;;;;;2.97;1.60;;;;;;;20.29;53.28;99848.69;4442490;32;33282;-83
2022/06/16 04:27:51;;;;;;;2.35;1.45;;;;;;;20.27;53.70;99853.19;4446721;32;34168;-81
2022/06/16 04:30:20;;;;;;;2.33;1.50;;;;;;;20.36;53.69;99855.34;4445437;32;33823;-81
2022/06/16 04:32:49;;;;;;;2.05;1.70;;;;;;;19.99;54.13;99865.09;4442641;32;32950;-81
2022/06/16 04:35:18;;;;;;;2.50;1.62;;;;;;;20.27;53.79;99860.25;4445574;32;33296;-81
2022/06/16 04:37:50;;;;;;;1.45;1.23;;;;;;;20.65;52.88;99858.31;4438378;32;33338;-81
2022/06/16 04:40:20;;;;;;;2.55;1.42;;;;;;;21.35;49.82;99858.09;4448127;32;32801;-81
2022/06/16 04:42:49;;;;;;;2.62;1.62;;;;;;;22.02;48.22;99864.03;4442155;32;33214;-83
2022/06/16 04:45:20;;;;;;;6.22;2.30;;;;;;;22.57;46.32;99866.97;4443481;32;33553;-82
2022/06/16 04:47:49;;;;;;;3.72;2.03;;;;;;;22.88;45.08;99861.59;4439058;32;34022;-81
2022/06/16 04:50:18;;;;;;;3.83;1.73;;;;;;;23.74;43.93;99862.38;4444554;32;33369;-81
2022/06/16 04:52:49;;;;;;;4.47;1.97;;;;;;;24.21;42.82;99858.38;4447620;32;32891;-81
2022/06/16 04:55:18;;;;;;;3.53;1.67;;;;;;;24.51;41.62;99861.75;4447893;32;32909;-82
2022/06/16 04:57:50;;;;;;;2.22;1.20;;;;;;;24.98;40.82;99855.78;4440380;32;33316;-82
2022/06/16 05:00:20;;;;;;;3.53;1.60;;;;;;;25.84;39.22;99860.22;4440676;32;33323;-83
2022/06/16 05:02:56;;;;;;;3.80;1.70;;;;;;;25.82;38.80;99861.31;4440876;32;32999;-82
2022/06/16 05:05:25;;;;;;;3.97;1.77;;;;;;;26.64;37.73;99856.06;4440327;32;33415;-82
2022/06/16 05:07:56;;;;;;;4.28;1.52;;;;;;;26.77;37.38;99859.47;4446756;32;33586;-82
2022/06/16 05:10:25;;;;;;;2.33;1.37;;;;;;;26.78;36.63;99856.69;4442829;32;32816;-83
2022/06/16 05:12:59;;;;;;;2.90;1.17;;;;;;;27.03;36.57;99860.06;4438532;32;33356;-82
2022/06/16 05:15:27;;;;;;;5.03;1.50;;;;;;;26.95;36.51;99863.34;4439647;32;34078;-83
2022/06/16 05:17:56;;;;;;;3.55;1.40;;;;;;;26.63;36.83;99855.22;4442897;32;34027;-83
2022/06/16 05:20:26;;;;;;;4.43;2.00;;;;;;;26.75;36.43;99856.94;4444270;32;33330;-82
2022/06/16 05:22:56;;;;;;;3.22;1.40;;;;;;;26.67;36.90;99864.66;4443805;32;34110;-82
2022/06/16 05:25:25;;;;;;;;;;;;;;;26.83;36.16;99861.66;4440726;32;33562;-82
2022/06/16 05:27:55;;;;;;;3.60;1.62;;;;;;;26.38;36.79;99859.72;4440652;32;34241;-82
2022/06/16 05:30:24;;;;;;;4.00;1.70;;;;;;;26.27;37.21;99856.22;4429032;32;33879;-82
2022/06/16 05:32:55;;;;;;;2.83;1.62;;;;;;;26.59;36.63;99849.28;4441216;32;33503;-82
2022/06/16 05:35:25;;;;;;;7.57;1.77;;;;;;;26.62;36.77;99858.84;4446192;32;34166;-82
2022/06/16 05:37:55;;;;;;;3.83;1.67;;;;;;;26.42;37.47;99857.69;4442277;32;33184;-82
2022/06/16 05:40:26;;;;;;;3.45;1.37;;;;;;;26.20;37.81;99860.28;4441294;32;33827;-82
2022/06/16 05:42:55;;;;;;;2.53;1.25;;;;;;;26.63;37.59;99851.69;4443958;32;32561;-82
2022/06/16 05:45:24;;;;;;;3.42;1.70;;;;;;;26.79;37.11;99858.38;4442636;32;34580;-82
2022/06/16 05:47:53;;;;;;;2.05;1.20;;;;;;;26.94;36.22;99855.47;4442614;32;34338;-82
2022/06/16 05:50:23;;;;;;;;;;;;;;;26.71;36.50;99851.97;4450544;32;32808;-82
2022/06/16 05:52:53;;;;;;;2.08;1.30;;;;;;;27.12;35.72;99856.69;4446777;32;32895;-83
2022/06/16 05:55:24;;;;;;;1.70;1.15;;;;;;;26.59;36.51;99857.25;4445039;32;34047;-82
2022/06/16 05:57:53;;;;;;;4.57;1.65;;;;;;;26.86;35.40;99856.06;4439511;32;33500;-82
2022/06/16 06:00:23;;;;;;;4.82;1.40;;;;;;;27.04;35.41;99861.78;4437837;32;33522;-83
2022/06/16 06:02:57;;;;;;;4.55;1.42;;;;;;;26.72;36.14;99857.16;4445673;32;32933;-83
2022/06/16 06:05:29;;;;;;;1.55;1.02;;;;;;;26.44;36.83;99855.75;4433864;32;33872;-82
2022/06/16 06:16:26;;;;;;;3.55;2.17;;;;;;;25.80;38.27;99850.78;4438306;32;34161;-81
2022/06/16 06:18:56;;;;;;;4.15;1.55;;;;;;;25.65;38.92;99850.09;4438530;32;33864;-82
2022/06/16 06:24:14;;;;;;;4.40;1.35;;;;;;;25.51;38.69;99855.56;4440897;32;32985;-83
2022/06/16 06:26:46;;;;;;;2.58;1.30;;;;;;;25.63;38.79;99852.03;4428725;32;33511;-82
2022/06/16 06:29:15;;;;;;;1.08;0.88;;;;;;;25.50;39.00;99848.59;4432236;32;33652;-82
2022/06/16 06:31:44;;;;;;;1.50;1.00;;;;;;;25.72;38.99;99847.84;4429038;32;35476;-83
2022/06/16 06:34:13;;;;;;;4.95;1.75;;;;;;;25.73;39.33;99853.06;4430956;32;33129;-82
2022/06/16 06:36:42;;;;;;;1.80;1.08;;;;;;;25.61;39.61;99858.41;4437897;32;35343;-81
2022/06/16 06:39:12;;;;;;;2.37;1.35;;;;;;;25.82;39.17;99856.00;4439334;32;33794;-82
2022/06/16 06:41:41;;;;;;;6.18;1.30;;;;;;;25.85;38.59;99859.25;4436242;32;33363;-82
2022/06/16 06:44:11;;;;;;;2.42;1.20;;;;;;;25.43;39.24;99869.41;4434397;32;33556;-82
2022/06/16 06:46:40;;;;;;;1.58;0.95;;;;;;;25.66;39.09;99861.56;4430042;32;33898;-82
2022/06/16 06:49:09;;;;;;;5.15;1.55;;;;;;;25.64;39.54;99863.53;4437783;32;33844;-83
2022/06/16 06:51:40;;;;;;;2.08;1.02;;;;;;;25.71;40.39;99857.63;4439582;32;33155;-84
2022/06/16 06:54:09;;;;;;;2.33;1.10;;;;;;;25.47;38.85;99854.97;4434114;32;33864;-83
2022/06/16 06:56:37;;;;;;;2.42;1.27;;;;;;;25.54;38.56;99853.56;4435595;32;33753;-83
2022/06/16 06:59:08;;;;;;;3.12;1.10;;;;;;;25.41;38.67;99851.91;4441007;32;34272;-83
2022/06/16 07:01:38;;;;;;;;;;;;;;;25.71;38.75;99857.63;4426494;32;33120;-83
2022/06/16 07:04:07;;;;;;;1.20;0.82;;;;;;;25.68;38.38;99860.50;4443264;32;32924;-83
2022/06/16 07:06:36;;;;;;;2.50;1.45;;;;;;;26.02;38.67;99859.84;4437286;32;34716;-82
2022/06/16 07:09:05;;;;;;;0.93;0.75;;;;;;;26.19;38.18;99856.75;4430270;32;34064;-82
2022/06/16 07:11:34;;;;;;;2.67;1.62;;;;;;;26.14;38.67;99854.47;4438883;32;32232;-82
2022/06/16 07:14:03;;;;;;;2.08;1.10;;;;;;;26.47;37.47;99858.19;4440305;32;33353;-84
2022/06/16 07:16:33;;;;;;;;;;;;;;;26.51;37.47;99854.31;4441789;32;33903;-84
2022/06/16 07:19:04;;;;;;;6.68;1.42;;;;;;;26.60;36.84;99852.78;4432239;32;33883;-82
2022/06/16 07:21:33;;;;;;;1.65;0.90;;;;;;;26.62;37.49;99847.34;4432709;32;32878;-84
2022/06/16 07:24:02;;;;;;;4.00;1.25;;;;;;;26.62;37.42;99850.84;4438230;32;32845;-84
2022/06/16 07:26:32;;;;;;;1.25;1.02;;;;;;;26.70;37.21;99847.59;4445294;32;34701;-82
2022/06/16 07:29:01;;;;;;;2.03;1.08;;;;;;;26.99;36.73;99853.28;4446702;32;34116;-82
2022/06/16 07:31:30;;;;;;;2.08;1.10;;;;;;;26.97;36.74;99842.78;4439969;32;33929;-82
2022/06/16 07:34:05;;;;;;;2.28;1.12;;;;;;;26.94;37.08;99856.34;4443367;32;32764;-83
2022/06/16 07:36:34;;;;;;;3.40;1.33;;;;;;;26.99;36.30;99848.84;4441859;32;35313;-82
2022/06/16 07:39:04;;;;;;;2.20;0.93;;;;;;;26.93;36.13;99843.13;4441895;32;33653;-83
2022/06/16 07:41:34;;;;;;;4.07;1.02;;;;;;;27.00;36.41;99845.19;4437797;32;34310;-84
2022/06/16 07:44:05;;;;;;;1.52;1.08;;;;;;;27.30;36.18;99848.22;4442490;32;33434;-83
2022/06/16 07:46:35;;;;;;;1.95;1.48;;;;;;;27.29;36.00;99854.53;4437109;32;33896;-83
2022/06/16 07:49:05;;;;;;;3.50;1.87;;;;;;;27.22;35.57;99840.84;4438453;32;32121;-82
2022/06/16 07:51:35;;;;;;;2.37;0.93;;;;;;;27.40;36.50;99846.50;4444853;32;33284;-84
2022/06/16 07:54:12;;;;;;;1.98;1.02;;;;;;;27.50;36.62;99851.94;4438380;32;32909;-83
2022/06/16 07:57:01;;;;;;;2.55;1.60;;;;;;;27.00;34.30;99837.19;4426472;32;32376;-83
2022/06/16 07:59:30;;;;;;;2.25;1.02;;;;;;;27.57;33.21;99838.00;4424559;32;34625;-83
2022/06/16 08:01:59;;;;;;;1.92;1.00;;;;;;;27.62;35.26;99840.28;4434135;32;34043;-83
2022/06/16 08:04:30;;;;;;;3.70;1.20;;;;;;;27.50;34.58;99836.81;4432404;32;33756;-83
2022/06/16 08:07:00;;;;;;;4.12;1.45;;;;;;;27.83;34.07;99835.03;4433808;32;33339;-83
2022/06/16 08:09:31;;;;;;;;;;;;;;;28.16;33.39;99835.84;4435368;32;35444;-83
2022/06/16 08:12:09;;;;;;;1.65;0.80;;;;;;;28.19;33.45;99827.59;4431344;32;34068;-83
2022/06/16 08:14:44;;;;;;;1.77;1.02;;;;;;;28.19;31.21;99828.44;4438984;32;33135;-83
2022/06/16 08:17:16;;;;;;;1.77;0.90;;;;;;;28.22;31.14;99822.84;4434826;32;34573;-83
2022/06/16 08:19:47;;;;;;;1.20;0.60;;;;;;;28.54;31.58;99831.75;4435971;32;34004;-83
2022/06/16 08:22:16;;;;;;;0.65;0.57;;;;;;;28.53;30.86;99830.91;4439854;32;33662;-85
2022/06/16 08:24:47;;;;;;;1.08;0.80;;;;;;;28.67;29.72;99833.25;4435871;32;32952;-83
2022/06/16 08:27:16;;;;;;;0.75;0.60;;;;;;;28.94;29.86;99834.47;4444462;32;33297;-83
2022/06/16 08:29:46;;;;;;;1.83;0.90;;;;;;;29.04;28.42;99835.34;4441435;32;33708;-83
2022/06/16 08:32:17;;;;;;;1.92;0.70;;;;;;;29.02;28.55;99842.69;4431873;32;34269;-83
2022/06/16 08:34:49;;;;;;;2.37;0.95;;;;;;;29.02;31.09;99837.34;4431790;32;33026;-83
2022/06/16 08:37:19;;;;;;;2.03;0.95;;;;;;;28.85;30.69;99838.81;4431611;32;33092;-84
2022/06/16 08:39:48;;;;;;;1.45;0.85;;;;;;;29.13;28.82;99839.09;4426101;32;34959;-83
2022/06/16 08:42:22;;;;;;;1.20;0.80;;;;;;;29.18;30.31;99833.34;4421844;32;33131;-85
2022/06/16 08:44:55;;;;;;;1.75;0.90;;;;;;;29.29;30.09;99839.41;4422644;32;34074;-84
2022/06/16 08:47:31;;;;;;;2.53;0.80;;;;;;;29.13;30.46;99847.09;4434703;32;33285;-83
2022/06/16 08:50:12;;;;;;;2.45;1.12;;;;;;;29.31;30.03;99842.81;4428883;32;34406;-85
2022/06/16 08:52:47;;;;;;;1.85;0.88;;;;;;;29.03;29.65;99835.50;4430454;32;33542;-83
2022/06/16 08:55:22;;;;;;;1.45;0.90;;;;;;;29.49;29.48;99844.81;4431639;32;33559;-84
2022/06/16 08:57:56;;;;;;;1.67;0.98;;;;;;;29.53;29.22;99839.03;4435840;32;34703;-85
2022/06/16 09:00:31;;;;;;;1.02;0.82;;;;;;;29.45;28.03;99838.88;4437164;32;34971;-83
2022/06/16 09:03:01;;;;;;;1.42;0.90;;;;;;;29.39;27.91;99844.78;4432214;32;33498;-84
2022/06/16 09:05:35;;;;;;;;;;;;;;;28.83;30.56;99834.59;4430459;32;33493;-83
2022/06/16 09:08:12;;;;;;;1.73;0.85;;;;;;;29.45;28.49;99835.38;4429488;32;33995;-83
2022/06/16 09:10:44;;;;;;;0.80;0.70;;;;;;;29.33;29.71;99840.84;4430551;32;34727;-83
2022/06/16 09:13:47;;;;;;;2.28;1.00;;;;;;;29.23;28.50;99834.59;4434151;32;33830;-83
2022/06/16 09:16:28;;;;;;;1.35;0.98;;;;;;;29.32;28.79;99828.44;4423670;32;32843;-83
2022/06/16 09:19:15;;;;;;;3.20;0.85;;;;;;;29.61;28.54;99832.16;4442870;32;34588;-85
2022/06/16 09:21:50;;;;;;;2.72;1.00;;;;;;;29.39;28.26;99827.91;4433497;32;35522;-83
2022/06/16 09:24:32;;;;;;;3.50;1.00;;;;;;;29.57;27.42;99828.91;4438165;32;33766;-83
2022/06/16 09:27:06;;;;;;;1.12;0.80;;;;;;;29.32;28.08;99831.13;4429929;32;33243;-83
2022/06/16 09:29:41;;;;;;;2.37;0.90;;;;;;;29.50;27.93;99822.41;4430074;32;34510;-83
2022/06/16 09:32:14;;;;;;;1.95;0.65;;;;;;;29.82;27.29;99819.53;4426626;32;162036;-83
2022/06/16 09:34:49;;;;;;;1.12;0.90;;;;;;;29.50;27.80;99825.09;4435624;32;33019;-84
2022/06/16 09:37:24;;;;;;;2.45;0.90;;;;;;;29.75;26.51;99823.75;4434890;32;32658;-83
2022/06/16 09:39:58;;;;;;;1.60;0.95;;;;;;;29.78;26.30;99826.16;4429590;32;34694;-83
2022/06/16 09:42:35;;;;;;;1.50;0.85;;;;;;;29.78;27.81;99818.13;4430790;32;33862;-83
2022/06/16 09:45:12;;;;;;;1.90;0.60;;;;;;;29.76;26.79;99810.22;4432570;32;33838;-83
2022/06/16 09:47:45;;;;;;;1.98;0.77;;;;;;;29.97;27.21;99798.56;4429553;32;34025;-84
2022/06/16 09:50:21;;;;;;;2.20;0.70;;;;;;;30.16;26.60;99800.38;4430647;32;34232;-83
2022/06/16 09:52:55;;;;;;;1.90;0.60;;;;;;;30.18;25.23;99803.75;4435697;32;33663;-84
2022/06/16 09:55:28;;;;;;;2.05;0.70;;;;;;;30.16;26.87;99798.53;4431187;32;33520;-83
2022/06/16 09:58:03;;;;;;;1.35;0.70;;;;;;;29.97;25.33;99798.56;4428491;32;32726;-83
2022/06/16 10:00:34;;;;;;;1.05;0.50;;;;;;;30.45;24.13;99804.84;4432165;32;34451;-83
2022/06/16 10:03:16;;;;;;;2.95;0.82;;;;;;;30.63;24.43;99811.09;4430456;32;33571;-85
2022/06/16 10:05:57;;;;;;;1.35;0.70;;;;;;;30.68;23.46;99800.78;4430516;32;34080;-83
2022/06/16 10:08:33;;;;;;;2.47;0.70;;;;;;;30.80;23.60;99802.28;4441519;32;34097;-83
2022/06/16 10:11:06;;;;;;;1.17;0.75;;;;;;;30.94;23.03;99802.84;4438881;32;33049;-83
2022/06/16 10:13:38;;;;;;;1.45;0.85;;;;;;;30.93;22.63;99804.69;4429884;32;33944;-83
2022/06/16 10:16:11;;;;;;;1.25;0.57;;;;;;;30.97;23.34;99797.19;4435594;32;33517;-84
2022/06/16 10:18:42;;;;;;;1.50;0.70;;;;;;;31.08;25.14;99802.34;4436446;32;33406;-83
2022/06/16 10:21:12;;;;;;;1.05;0.65;;;;;;;31.22;23.63;99793.81;4438487;32;32193;-84
2022/06/16 10:23:46;;;;;;;1.42;0.70;;;;;;;30.39;23.91;99793.69;4436256;32;34064;-83
2022/06/16 10:26:15;;;;;;;2.05;0.70;;;;;;;30.42;23.12;99789.88;4437273;32;33992;-83
2022/06/16 10:29:01;;;;;;;1.45;0.77;;;;;;;30.74;24.15;99794.87;4438023;32;33300;-83
2022/06/16 10:31:40;;;;;;;1.17;0.68;;;;;;;31.40;22.79;99801.88;4438799;32;33884;-85
2022/06/16 10:34:29;;;;;;;2.07;0.70;;;;;;;31.55;23.14;99794.16;4441260;32;34501;-83
2022/06/16 10:37:03;;;;;;;1.73;0.60;;;;;;;31.65;23.41;99799.44;4442368;32;33482;-84
2022/06/16 10:39:45;;;;;;;0.70;0.50;;;;;;;31.80;22.03;99799.72;4438286;32;33357;-83
2022/06/16 10:42:20;;;;;;;0.83;0.60;;;;;;;31.55;21.91;99804.03;4436452;32;33640;-83
2022/06/16 10:44:56;;;;;;;1.17;0.75;;;;;;;31.03;21.54;99807.31;4436657;32;34632;-83
2022/06/16 10:47:32;;;;;;;1.25;0.73;;;;;;;31.71;20.86;99804.22;4436200;32;34155;-83
2022/06/16 10:50:02;;;;;;;1.25;0.43;;;;;;;31.92;22.58;99794.97;4433131;32;32931;-83
2022/06/16 10:52:33;;;;;;;1.40;0.82;;;;;;;32.11;23.00;99797.50;4441042;32;34327;-83
2022/06/16 10:55:19;;;;;;;1.02;0.60;;;;;;;32.16;21.80;99792.53;4434075;32;34690;-84
2022/06/16 10:57:50;;;;;;;1.27;0.55;;;;;;;32.19;21.68;99797.59;4445521;32;33698;-83
2022/06/16 11:00:22;;;;;;;1.35;0.75;;;;;;;32.08;21.56;99793.28;4447459;32;34234;-83
2022/06/16 11:02:58;;;;;;;1.52;0.60;;;;;;;32.52;21.80;99792.44;4437734;32;34568;-83
2022/06/16 11:05:29;;;;;;;0.90;0.70;;;;;;;32.64;21.02;99785.78;4437906;32;34005;-83
2022/06/16 11:08:07;;;;;;;1.83;0.60;;;;;;;32.38;20.53;99784.94;4438609;32;33336;-83
2022/06/16 11:10:58;;;;;;;0.62;0.45;;;;;;;32.00;20.08;99776.31;4444280;32;34032;-83
2022/06/16 11:13:30;;;;;;;0.73;0.40;;;;;;;32.23;20.00;99755.97;4445652;32;32991;-83
2022/06/16 11:15:59;;;;;;;0.50;0.50;;;;;;;32.46;20.51;99763.50;4449467;32;32727;-83
2022/06/16 11:18:30;;;;;;;1.65;0.60;;;;;;;32.88;20.94;99763.56;4435187;32;34927;-83
2022/06/16 11:21:00;;;;;;;0.68;0.45;;;;;;;32.80;20.89;99768.06;4445598;32;34090;-83
2022/06/16 11:23:32;;;;;;;2.10;0.70;;;;;;;33.08;20.79;99760.62;4443301;32;34215;-83
2022/06/16 11:26:17;;;;;;;0.95;0.70;;;;;;;33.52;20.15;99747.78;4439413;32;34511;-84
2022/06/16 11:28:49;;;;;;;1.60;0.70;;;;;;;33.23;19.23;99740.19;4438707;32;34324;-83
2022/06/16 11:31:21;;;;;;;2.30;0.70;;;;;;;33.70;19.62;99741.41;4447302;32;32649;-83
2022/06/16 11:34:08;;;;;;;1.30;0.50;;;;;;;34.20;17.75;99738.53;4443254;32;33584;-84
2022/06/16 11:36:52;;;;;;;1.02;0.62;;;;;;;34.32;18.20;99733.63;4443244;32;33658;-84
2022/06/16 11:39:27;;;;;;;1.77;0.82;;;;;;;33.69;19.41;99737.88;4444849;32;33316;-83
2022/06/16 11:41:59;;;;;;;2.08;0.77;;;;;;;34.16;20.16;99747.13;4443429;32;33820;-83
2022/06/16 11:44:44;;;;;;;2.25;1.27;;;;;;;34.41;19.21;99729.88;4443460;32;34377;-83
2022/06/16 11:47:24;;;;;;;0.77;0.55;;;;;;;34.54;17.49;99732.03;4444288;32;32617;-83
2022/06/16 11:49:55;;;;;;;;;;;;;;;34.41;18.09;99724.50;4438147;32;32280;-83
2022/06/16 11:52:30;;;;;;;1.80;0.70;;;;;;;33.71;18.31;99719.72;4441815;32;33136;-83
2022/06/16 11:55:02;;;;;;;0.80;0.50;;;;;;;33.91;18.58;99714.81;4419654;32;31813;-84
2022/06/16 11:57:40;;;;;;;1.20;0.70;;;;;;;33.99;19.70;99704.03;4430893;32;33904;-83
2022/06/16 12:00:20;;;;;;;1.48;0.57;;;;;;;34.23;20.33;99706.88;4438831;32;33246;-82
2022/06/16 12:03:15;;;;;;;;;;;;;;;34.40;18.82;99708.50;4435444;32;33259;-83
2022/06/16 12:05:48;;;;;;;1.23;0.57;;;;;;;34.79;18.84;99702.28;4434473;32;34870;-83
2022/06/16 12:08:27;;;;;;;1.55;0.52;;;;;;;34.51;19.30;99708.12;4435613;32;34086;-84
2022/06/16 12:11:03;;;;;;;0.77;0.52;;;;;;;34.55;19.74;99712.13;4439759;32;34400;-84
2022/06/16 12:13:42;;;;;;;2.03;0.68;;;;;;;34.37;18.97;99707.00;4435846;32;33206;-83
2022/06/16 12:16:15;;;;;;;1.05;0.60;;;;;;;33.90;19.98;99707.78;4431728;32;34441;-83
2022/06/16 12:18:59;;;;;;;0.62;0.40;;;;;;;34.89;19.58;99705.59;4430340;32;33690;-83